Time;durP1;ratioP1;P1;durP2;ratioP2;P2;SDS_P1;SDS_P2;PMS_P1;PMS_P2;Temp;Humidity;BMP_temperature;BMP_pressure;BME280_temperature;BME280_humidity;BME280_pressure;Samples;Min_cycle;Max_cycle;Signal;HPM_P1;HPM_P2
2021/04/28 00:01:55;;;;;;;3.77;2.70;;;;;;;;;;5064264;28;20350;-51
2021/04/28 00:04:20;;;;;;;4.20;2.67;;;;;;;;;;5070421;28;20174;-51
2021/04/28 00:06:49;;;;;;;6.17;3.03;;;;;;;;;;5052276;28;23145;-52
2021/04/28 00:09:14;;;;;;;3.43;2.70;;;;;;;;;;5065833;28;20205;-54
2021/04/28 00:11:40;;;;;;;5.57;3.40;;;;;;;;;;5063868;28;20235;-50
2021/04/28 00:14:06;;;;;;;4.37;2.90;;;;;;;;;;5069554;28;20203;-53
2021/04/28 00:16:32;;;;;;;8.67;3.40;;;;;;;;;;5064189;28;20186;-52
2021/04/28 00:18:57;;;;;;;4.10;2.53;;;;;;;;;;5065804;28;20304;-53
2021/04/28 00:21:27;;;;;;;3.40;2.33;;;;;;;;;;5037570;28;20190;-55
2021/04/28 00:23:53;;;;;;;2.27;1.83;;;;;;;;;;5068799;28;20216;-53
2021/04/28 00:26:23;;;;;;;3.53;2.30;;;;;;;;;;5065438;28;20614;-54
2021/04/28 00:28:48;;;;;;;3.07;2.17;;;;;;;;;;5067823;28;20224;-53
2021/04/28 00:31:16;;;;;;;2.60;1.47;;;;;;;;;;5066586;28;20186;-53
2021/04/28 00:33:41;;;;;;;2.53;1.80;;;;;;;;;;5069390;28;20549;-53
2021/04/28 00:36:11;;;;;;;4.97;1.90;;;;;;;;;;5069177;28;20189;-54
2021/04/28 00:38:40;;;;;;;3.37;2.00;;;;;;;;;;5068501;28;20658;-53
2021/04/28 00:41:06;;;;;;;3.30;2.43;;;;;;;;;;5068549;28;20269;-52
2021/04/28 00:43:31;;;;;;;4.17;1.80;;;;;;;;;;5071117;28;20177;-53
2021/04/28 00:46:00;;;;;;;5.80;3.00;;;;;;;;;;5065663;28;20235;-54
2021/04/28 00:48:27;;;;;;;3.60;1.73;;;;;;;;;;5069570;28;20266;-51
2021/04/28 00:50:53;;;;;;;3.67;1.47;;;;;;;;;;5066615;28;20598;-52
2021/04/28 00:53:19;;;;;;;2.60;1.97;;;;;;;;;;5070077;28;20193;-52
2021/04/28 00:55:47;;;;;;;3.37;1.53;;;;;;;;;;5049827;28;20555;-53
2021/04/28 00:58:15;;;;;;;2.67;1.77;;;;;;;;;;5067693;28;20257;-52
2021/04/28 01:00:43;;;;;;;3.10;1.90;;;;;;;;;;5065238;28;20560;-51
2021/04/28 01:03:08;;;;;;;2.27;1.83;;;;;;;;;;5066692;28;20675;-53
2021/04/28 01:05:39;;;;;;;4.50;1.83;;;;;;;;;;5064777;28;20169;-50
2021/04/28 01:08:07;;;;;;;3.23;1.70;;;;;;;;;;5063826;28;20264;-52
2021/04/28 01:10:33;;;;;;;3.13;2.20;;;;;;;;;;5066855;28;20282;-53
2021/04/28 01:12:58;;;;;;;2.13;1.40;;;;;;;;;;5050067;28;20178;-52
2021/04/28 01:15:26;;;;;;;1.93;1.57;;;;;;;;;;5050402;28;20181;-55
2021/04/28 01:17:54;;;;;;;1.63;1.53;;;;;;;;;;5074060;28;20291;-53
2021/04/28 01:20:21;;;;;;;3.10;1.30;;;;;;;;;;5067479;28;20196;-53
2021/04/28 01:22:47;;;;;;;4.73;2.30;;;;;;;;;;5052532;28;20720;-55
2021/04/28 01:25:17;;;;;;;3.70;2.30;;;;;;;;;;5069003;28;20273;-53
2021/04/28 01:27:45;;;;;;;1.40;1.20;;;;;;;;;;5066479;28;20192;-52
2021/04/28 01:30:13;;;;;;;1.77;1.37;;;;;;;;;;5067828;28;20189;-53
2021/04/28 01:32:43;;;;;;;1.57;1.43;;;;;;;;;;5070773;28;20188;-52
2021/04/28 01:35:12;;;;;;;3.13;2.30;;;;;;;;;;5067440;28;20242;-55
2021/04/28 01:37:37;;;;;;;4.20;1.83;;;;;;;;;;5063430;28;20257;-53
2021/04/28 01:40:05;;;;;;;1.87;1.60;;;;;;;;;;5068703;28;20205;-54
2021/04/28 01:42:31;;;;;;;3.57;2.27;;;;;;;;;;5050422;28;20710;-52
2021/04/28 01:44:59;;;;;;;2.87;2.00;;;;;;;;;;5063064;28;20166;-53
2021/04/28 01:47:24;;;;;;;3.47;2.10;;;;;;;;;;5067320;28;20676;-54
2021/04/28 01:49:52;;;;;;;1.77;1.10;;;;;;;;;;5067225;28;20213;-54
2021/04/28 01:52:18;;;;;;;4.27;1.60;;;;;;;;;;5068737;28;20275;-54
2021/04/28 01:54:45;;;;;;;1.40;1.30;;;;;;;;;;5067452;28;20277;-53
2021/04/28 01:57:13;;;;;;;1.87;1.50;;;;;;;;;;5069471;28;20214;-53
2021/04/28 01:59:41;;;;;;;4.00;2.67;;;;;;;;;;5067186;28;20205;-52
2021/04/28 02:02:11;;;;;;;3.23;1.70;;;;;;;;;;5067467;28;20184;-53
2021/04/28 02:04:36;;;;;;;2.60;2.13;;;;;;;;;;5067000;28;20213;-53
2021/04/28 02:07:02;;;;;;;3.57;2.17;;;;;;;;;;5068672;28;20181;-52
2021/04/28 02:09:30;;;;;;;7.97;2.60;;;;;;;;;;5067875;28;20250;-52
2021/04/28 02:11:58;;;;;;;4.50;3.03;;;;;;;;;;5066315;28;20208;-53
2021/04/28 02:14:26;;;;;;;4.57;2.70;;;;;;;;;;5068758;28;20191;-55
2021/04/28 02:16:54;;;;;;;5.20;3.10;;;;;;;;;;5068675;28;20235;-52
2021/04/28 02:19:20;;;;;;;4.53;2.80;;;;;;;;;;5050496;28;20217;-53
2021/04/28 02:21:51;;;;;;;5.47;2.77;;;;;;;;;;5049173;28;20185;-53
2021/04/28 02:24:18;;;;;;;5.40;3.20;;;;;;;;;;5051109;28;20181;-53
2021/04/28 02:26:44;;;;;;;3.87;2.90;;;;;;;;;;5065154;28;20234;-54
2021/04/28 02:29:11;;;;;;;5.13;3.00;;;;;;;;;;5066414;28;20217;-52
2021/04/28 02:31:37;;;;;;;4.83;2.70;;;;;;;;;;5067541;28;20196;-53
2021/04/28 02:34:03;;;;;;;4.17;3.03;;;;;;;;;;5067610;28;20197;-53
2021/04/28 02:36:31;;;;;;;4.43;2.93;;;;;;;;;;5070262;28;20193;-52
2021/04/28 02:38:59;;;;;;;5.43;3.20;;;;;;;;;;5052098;28;20220;-53
2021/04/28 02:41:27;;;;;;;3.93;2.80;;;;;;;;;;5068892;28;20185;-52
2021/04/28 02:43:52;;;;;;;3.83;2.80;;;;;;;;;;5049118;28;20684;-51
2021/04/28 02:46:20;;;;;;;5.73;3.40;;;;;;;;;;5062202;28;20174;-54
2021/04/28 02:48:50;;;;;;;5.57;2.93;;;;;;;;;;5061625;28;20378;-54
2021/04/28 02:51:15;;;;;;;3.37;2.60;;;;;;;;;;5060995;28;20204;-51
2021/04/28 02:53:44;;;;;;;6.50;3.07;;;;;;;;;;5062076;28;20188;-54
2021/04/28 02:56:09;;;;;;;5.70;3.23;;;;;;;;;;5061370;28;20551;-53
2021/04/28 02:58:38;;;;;;;5.30;3.13;;;;;;;;;;5043842;28;20201;-51
2021/04/28 03:01:09;;;;;;;5.43;3.20;;;;;;;;;;5060842;28;20304;-53
2021/04/28 03:03:34;;;;;;;4.47;3.27;;;;;;;;;;5047634;28;20185;-53
2021/04/28 03:06:00;;;;;;;5.93;3.07;;;;;;;;;;5059634;28;20170;-53
2021/04/28 03:08:26;;;;;;;6.97;3.30;;;;;;;;;;5067887;28;20209;-53
2021/04/28 03:10:54;;;;;;;4.50;3.40;;;;;;;;;;5068436;28;20182;-52
2021/04/28 03:13:19;;;;;;;5.97;2.97;;;;;;;;;;5071684;28;20177;-50
2021/04/28 03:15:47;;;;;;;7.13;3.37;;;;;;;;;;5062639;28;20185;-53
2021/04/28 03:18:12;;;;;;;4.30;3.00;;;;;;;;;;5070392;28;20212;-52
2021/04/28 03:20:39;;;;;;;4.63;2.83;;;;;;;;;;5069915;28;20181;-53
2021/04/28 03:23:06;;;;;;;5.90;2.60;;;;;;;;;;5071757;28;20189;-54
2021/04/28 03:25:31;;;;;;;5.40;3.20;;;;;;;;;;5073806;28;20182;-53
2021/04/28 03:27:58;;;;;;;2.90;2.07;;;;;;;;;;5072349;28;20234;-52
2021/04/28 03:30:26;;;;;;;4.03;3.00;;;;;;;;;;5066776;28;20231;-52
2021/04/28 03:32:54;;;;;;;5.27;2.87;;;;;;;;;;5070253;28;20180;-51
2021/04/28 03:35:21;;;;;;;4.73;2.90;;;;;;;;;;5068567;28;20206;-52
2021/04/28 03:37:48;;;;;;;3.17;2.13;;;;;;;;;;5069313;28;20247;-52
2021/04/28 03:40:14;;;;;;;5.77;3.13;;;;;;;;;;5069468;28;20177;-52
2021/04/28 03:42:41;;;;;;;6.13;3.30;;;;;;;;;;5070738;28;20181;-54
2021/04/28 03:45:07;;;;;;;5.07;3.63;;;;;;;;;;5070133;28;20573;-54
2021/04/28 03:47:34;;;;;;;6.77;3.63;;;;;;;;;;5069891;28;20230;-53
2021/04/28 03:50:04;;;;;;;4.67;3.30;;;;;;;;;;5068358;28;20331;-54
2021/04/28 03:52:32;;;;;;;4.37;3.33;;;;;;;;;;5064571;28;20181;-54
2021/04/28 03:54:58;;;;;;;7.57;3.93;;;;;;;;;;5069593;28;20561;-54
2021/04/28 03:57:23;;;;;;;5.20;3.03;;;;;;;;;;5066926;28;20196;-51
2021/04/28 03:59:50;;;;;;;5.33;3.00;;;;;;;;;;5064814;28;20198;-54
2021/04/28 04:02:18;;;;;;;5.33;3.17;;;;;;;;;;5052872;28;20660;-54
2021/04/28 04:04:43;;;;;;;4.97;3.33;;;;;;;;;;5070209;28;20193;-54
2021/04/28 04:07:08;;;;;;;5.07;2.90;;;;;;;;;;5068105;28;20177;-55
2021/04/28 04:09:36;;;;;;;4.40;2.83;;;;;;;;;;5076846;28;20295;-53
2021/04/28 04:12:01;;;;;;;4.63;3.10;;;;;;;;;;5051840;28;20262;-53
2021/04/28 04:14:26;;;;;;;5.77;2.30;;;;;;;;;;5052081;28;20205;-54
2021/04/28 04:16:52;;;;;;;2.57;2.13;;;;;;;;;;5070607;28;20178;-53
2021/04/28 04:19:17;;;;;;;3.87;2.50;;;;;;;;;;5071620;28;20776;-53
2021/04/28 04:21:42;;;;;;;4.43;2.57;;;;;;;;;;5070403;28;20184;-53
2021/04/28 04:24:10;;;;;;;4.13;3.30;;;;;;;;;;5068508;28;20719;-51
2021/04/28 04:26:40;;;;;;;5.60;3.50;;;;;;;;;;5065444;28;20178;-52
2021/04/28 04:29:07;;;;;;;6.67;3.30;;;;;;;;;;5064144;28;20584;-51
2021/04/28 04:31:35;;;;;;;5.57;3.37;;;;;;;;;;5067818;28;20200;-52
2021/04/28 04:34:03;;;;;;;8.43;3.80;;;;;;;;;;5069565;28;20957;-53
2021/04/28 04:36:28;;;;;;;6.17;3.10;;;;;;;;;;5064216;28;20189;-53
2021/04/28 04:38:53;;;;;;;4.37;2.80;;;;;;;;;;5052546;28;20209;-53
2021/04/28 04:41:18;;;;;;;4.23;3.40;;;;;;;;;;5051719;28;20682;-53
2021/04/28 04:43:44;;;;;;;9.63;3.30;;;;;;;;;;5068350;28;20688;-53
2021/04/28 04:46:09;;;;;;;4.40;3.10;;;;;;;;;;5066001;28;20185;-55
2021/04/28 04:48:36;;;;;;;3.87;2.80;;;;;;;;;;5053120;28;20216;-53
2021/04/28 04:51:02;;;;;;;5.53;3.13;;;;;;;;;;5063816;28;20738;-53
2021/04/28 04:53:27;;;;;;;6.23;3.70;;;;;;;;;;5052159;28;20292;-51
2021/04/28 04:55:55;;;;;;;5.20;3.33;;;;;;;;;;5049708;28;20187;-53
2021/04/28 04:58:20;;;;;;;4.27;3.67;;;;;;;;;;5064101;28;20231;-52
2021/04/28 05:00:45;;;;;;;5.00;3.23;;;;;;;;;;5068161;28;20603;-51
2021/04/28 05:03:11;;;;;;;3.37;2.73;;;;;;;;;;5073657;28;20633;-52
2021/04/28 05:05:41;;;;;;;3.07;1.70;;;;;;;;;;5067019;28;20248;-53
2021/04/28 05:08:06;;;;;;;1.40;1.30;;;;;;;;;;5067826;28;20205;-51
2021/04/28 05:10:31;;;;;;;0.97;0.87;;;;;;;;;;5069802;28;20541;-53
2021/04/28 05:12:59;;;;;;;4.37;2.60;;;;;;;;;;5068797;28;20185;-53
2021/04/28 05:15:26;;;;;;;5.37;3.17;;;;;;;;;;5063912;28;20189;-53
2021/04/28 05:17:56;;;;;;;4.87;2.80;;;;;;;;;;5074242;28;20645;-54
2021/04/28 05:20:22;;;;;;;1.63;1.20;;;;;;;;;;5071574;28;20693;-53
2021/04/28 05:22:47;;;;;;;1.30;0.90;;;;;;;;;;5068720;28;20182;-53
2021/04/28 05:25:17;;;;;;;2.97;1.87;;;;;;;;;;5065696;28;20649;-52
2021/04/28 05:27:42;;;;;;;4.53;2.93;;;;;;;;;;5042579;28;20581;-54
2021/04/28 05:30:08;;;;;;;1.90;1.60;;;;;;;;;;5050659;28;20205;-51
2021/04/28 05:32:36;;;;;;;2.17;1.67;;;;;;;;;;5066577;28;20219;-51
2021/04/28 05:35:04;;;;;;;2.33;1.40;;;;;;;;;;5058022;28;20286;-53
2021/04/28 05:37:29;;;;;;;5.30;2.03;;;;;;;;;;5065511;28;20237;-54
2021/04/28 05:39:56;;;;;;;5.60;2.37;;;;;;;;;;5069266;28;20233;-54
2021/04/28 05:42:22;;;;;;;1.67;1.13;;;;;;;;;;5069282;28;20193;-53
2021/04/28 05:44:49;;;;;;;1.47;1.37;;;;;;;;;;5068061;28;20184;-53
2021/04/28 05:47:19;;;;;;;1.93;1.60;;;;;;;;;;5066542;28;20281;-53
2021/04/28 05:49:46;;;;;;;1.80;1.67;;;;;;;;;;5066549;28;20239;-53
2021/04/28 05:52:14;;;;;;;2.23;2.03;;;;;;;;;;5064114;28;20192;-54
2021/04/28 05:54:41;;;;;;;7.17;1.93;;;;;;;;;;5065585;28;20219;-52
2021/04/28 05:57:11;;;;;;;2.23;1.70;;;;;;;;;;5060817;28;20277;-52
2021/04/28 05:59:38;;;;;;;4.47;2.97;;;;;;;;;;5065355;28;20208;-53
2021/04/28 06:02:04;;;;;;;2.53;1.90;;;;;;;;;;5067141;28;20177;-54
2021/04/28 06:04:29;;;;;;;3.27;2.23;;;;;;;;;;5063879;28;20548;-53
2021/04/28 06:06:59;;;;;;;3.73;2.67;;;;;;;;;;5062285;28;20193;-55
2021/04/28 06:09:24;;;;;;;3.00;1.77;;;;;;;;;;5061250;28;20250;-53
2021/04/28 06:11:50;;;;;;;2.60;1.47;;;;;;;;;;5061901;28;20185;-53
2021/04/28 06:14:15;;;;;;;3.47;1.70;;;;;;;;;;5063842;28;20181;-54
2021/04/28 06:16:42;;;;;;;6.43;2.60;;;;;;;;;;5057046;28;20190;-52
2021/04/28 06:19:10;;;;;;;2.27;1.30;;;;;;;;;;5062863;28;20270;-52
2021/04/28 06:21:40;;;;;;;4.67;1.90;;;;;;;;;;5049758;28;20192;-52
2021/04/28 06:24:09;;;;;;;2.77;2.00;;;;;;;;;;5062769;28;20556;-55
2021/04/28 06:26:35;;;;;;;5.03;2.57;;;;;;;;;;5054086;28;20174;-50
2021/04/28 06:29:02;;;;;;;3.67;2.60;;;;;;;;;;5052920;28;20208;-52
2021/04/28 06:31:30;;;;;;;3.23;2.17;;;;;;;;;;5064713;28;20204;-52
2021/04/28 06:33:55;;;;;;;4.80;2.13;;;;;;;;;;5067098;28;20200;-53
2021/04/28 06:36:23;;;;;;;2.07;1.87;;;;;;;;;;5064204;28;20180;-55
2021/04/28 06:38:48;;;;;;;2.63;2.13;;;;;;;;;;5048059;28;20297;-51
2021/04/28 06:41:13;;;;;;;2.37;1.73;;;;;;;;;;5063789;28;20265;-53
2021/04/28 06:43:41;;;;;;;3.73;2.63;;;;;;;;;;5048489;28;20190;-52
2021/04/28 06:46:09;;;;;;;4.87;3.03;;;;;;;;;;5064291;28;20303;-51
2021/04/28 06:48:40;;;;;;;6.27;4.03;;;;;;;;;;5066196;28;20288;-52
2021/04/28 06:51:07;;;;;;;2.00;1.73;;;;;;;;;;5065987;28;20177;-53
2021/04/28 06:53:32;;;;;;;3.20;2.30;;;;;;;;;;5072275;28;20184;-50
2021/04/28 06:56:00;;;;;;;3.90;1.97;;;;;;;;;;5067834;28;20212;-52
2021/04/28 06:58:26;;;;;;;3.20;2.23;;;;;;;;;;5053600;28;20359;-53
2021/04/28 07:00:53;;;;;;;2.70;1.70;;;;;;;;;;5053721;28;20260;-53
2021/04/28 07:03:18;;;;;;;4.63;3.87;;;;;;;;;;5069931;28;20731;-53
2021/04/28 07:05:44;;;;;;;7.80;3.43;;;;;;;;;;5045024;28;20272;-54
2021/04/28 07:08:09;;;;;;;2.60;2.23;;;;;;;;;;5065063;28;20201;-54
2021/04/28 07:10:36;;;;;;;7.10;3.57;;;;;;;;;;5066372;28;20218;-55
2021/04/28 07:13:04;;;;;;;3.83;3.37;;;;;;;;;;5064577;28;20185;-53
2021/04/28 07:15:30;;;;;;;9.07;4.37;;;;;;;;;;5063891;28;20181;-54
2021/04/28 07:17:55;;;;;;;4.20;3.43;;;;;;;;;;5063185;28;20736;-52
2021/04/28 07:20:20;;;;;;;4.43;3.20;;;;;;;;;;5065192;28;20260;-53
2021/04/28 07:22:45;;;;;;;5.60;4.70;;;;;;;;;;5065713;28;20212;-53
2021/04/28 07:25:11;;;;;;;4.20;3.78;;;;;;;;;;5070432;28;20178;-53
2021/04/28 07:27:39;;;;;;;5.18;4.55;;;;;;;;;;5051784;28;20365;-53
2021/04/28 07:30:06;;;;;;;6.45;3.78;;;;;;;;;;5066812;28;20250;-54
2021/04/28 07:32:33;;;;;;;5.32;3.65;;;;;;;;;;5072317;28;20179;-52
2021/04/28 07:34:59;;;;;;;5.72;3.72;;;;;;;;;;5071519;28;20201;-53
2021/04/28 07:37:29;;;;;;;4.13;3.63;;;;;;;;;;5067553;28;20330;-54
2021/04/28 07:39:56;;;;;;;5.20;4.25;;;;;;;;;;5048634;28;20201;-53
2021/04/28 07:42:22;;;;;;;5.88;3.75;;;;;;;;;;5073601;28;20191;-54
2021/04/28 07:44:47;;;;;;;6.40;4.05;;;;;;;;;;5074531;28;20700;-53
2021/04/28 07:47:14;;;;;;;8.02;5.30;;;;;;;;;;5071351;28;20615;-54
2021/04/28 07:49:39;;;;;;;5.22;4.22;;;;;;;;;;5069327;28;20447;-54
2021/04/28 07:52:05;;;;;;;8.70;5.95;;;;;;;;;;5069037;28;20181;-54
2021/04/28 07:54:30;;;;;;;6.30;4.90;;;;;;;;;;5073337;28;20177;-52
2021/04/28 07:56:55;;;;;;;3.33;3.03;;;;;;;;;;5068776;28;20185;-54
2021/04/28 07:59:25;;;;;;;6.00;3.97;;;;;;;;;;5050170;28;20257;-52
2021/04/28 08:01:51;;;;;;;4.80;4.10;;;;;;;;;;5069199;28;20187;-52
2021/04/28 08:04:16;;;;;;;4.97;2.80;;;;;;;;;;5063035;28;20174;-53
2021/04/28 08:06:41;;;;;;;7.32;4.43;;;;;;;;;;5062957;28;20665;-51
2021/04/28 08:09:07;;;;;;;7.32;5.05;;;;;;;;;;5064801;28;20251;-52
2021/04/28 08:11:32;;;;;;;5.28;3.17;;;;;;;;;;5051295;28;20185;-53
2021/04/28 08:13:57;;;;;;;7.75;3.60;;;;;;;;;;5062944;28;20190;-50
2021/04/28 08:16:23;;;;;;;9.70;5.43;;;;;;;;;;5060954;28;20648;-52
2021/04/28 08:18:48;;;;;;;6.47;5.00;;;;;;;;;;5058771;28;20205;-53
2021/04/28 08:21:14;;;;;;;7.57;5.97;;;;;;;;;;5068249;28;20185;-51
2021/04/28 08:23:43;;;;;;;6.38;4.90;;;;;;;;;;5069211;28;20564;-52
2021/04/28 08:26:09;;;;;;;8.00;5.85;;;;;;;;;;5062411;28;20207;-51
2021/04/28 08:28:41;;;;;;;8.80;6.30;;;;;;;;;;5067053;28;20693;-52
2021/04/28 08:31:09;;;;;;;13.45;6.25;;;;;;;;;;5061052;28;20784;-51
2021/04/28 08:33:37;;;;;;;9.38;6.07;;;;;;;;;;5063007;28;20288;-59
2021/04/28 08:36:04;;;;;;;7.32;5.95;;;;;;;;;;5065710;28;20745;-54
2021/04/28 08:38:32;;;;;;;9.23;6.72;;;;;;;;;;5068718;28;20201;-52
2021/04/28 08:40:58;;;;;;;10.13;7.47;;;;;;;;;;5052878;28;20327;-54
2021/04/28 08:43:24;;;;;;;7.78;5.50;;;;;;;;;;5066571;28;20177;-52
2021/04/28 08:45:51;;;;;;;10.88;6.25;;;;;;;;;;5067509;28;20174;-52
2021/04/28 08:48:16;;;;;;;11.88;6.55;;;;;;;;;;5060061;28;20255;-53
2021/04/28 08:50:46;;;;;;;8.98;6.15;;;;;;;;;;5063467;28;20186;-53
2021/04/28 08:53:12;;;;;;;10.73;7.38;;;;;;;;;;5065531;28;21440;-53
2021/04/28 08:55:39;;;;;;;8.45;6.40;;;;;;;;;;5062175;28;20560;-54
2021/04/28 08:58:04;;;;;;;9.93;5.75;;;;;;;;;;5064763;28;20237;-54
2021/04/28 09:00:35;;;;;;;7.82;5.75;;;;;;;;;;5068753;28;20220;-54
2021/04/28 09:15:14;;;;;;;8.10;5.80;;;;;;;;;;5056849;28;20203;-53
2021/04/28 09:17:51;;;;;;;8.40;6.22;;;;;;;;;;5059829;28;20244;-51
2021/04/28 09:29:26;;;;;;;9.00;7.57;;;;;;;;;;5058188;28;20274;-52
2021/04/28 09:31:56;;;;;;;8.27;7.07;;;;;;;;;;5054334;28;20181;-52
2021/04/28 09:34:30;;;;;;;9.10;6.63;;;;;;;;;;5025920;28;20226;-54
2021/04/28 10:34:59;;;;;;;9.60;5.97;;;;;;;;;;5061137;28;20855;-52
2021/04/28 10:37:30;;;;;;;7.67;5.10;;;;;;;;;;5043129;28;20200;-53
2021/04/28 10:39:58;;;;;;;10.53;7.27;;;;;;;;;;5061791;28;20700;-52
2021/04/28 10:51:36;;;;;;;12.87;6.47;;;;;;;;;;5060594;28;20226;-53
2021/04/28 10:54:20;;;;;;;9.02;5.13;;;;;;;;;;5059842;28;20187;-53
2021/04/28 10:57:00;;;;;;;6.85;4.18;;;;;;;;;;5060739;28;20173;-51
2021/04/28 10:59:35;;;;;;;8.67;6.20;;;;;;;;;;5059801;28;20216;-52
2021/04/28 11:02:12;;;;;;;8.47;6.90;;;;;;;;;;5060222;28;20202;-49
2021/04/28 11:04:37;;;;;;;7.50;5.10;;;;;;;;;;5060005;28;20211;-52
2021/04/28 11:07:03;;;;;;;11.87;7.23;;;;;;;;;;5040107;28;20185;-53
2021/04/28 11:09:28;;;;;;;6.80;5.07;;;;;;;;;;5062221;28;20299;-51
2021/04/28 11:11:54;;;;;;;9.43;5.27;;;;;;;;;;5059352;28;20189;-50
2021/04/28 11:14:47;;;;;;;8.80;4.63;;;;;;;;;;5060908;28;20316;-53
2021/04/28 11:17:15;;;;;;;7.27;4.40;;;;;;;;;;5057753;28;20200;-53
2021/04/28 11:19:44;;;;;;;7.60;3.53;;;;;;;;;;5061521;28;20582;-52
2021/04/28 11:22:19;;;;;;;13.20;5.07;;;;;;;;;;5058491;28;20185;-52
2021/04/28 11:24:57;;;;;;;5.90;4.47;;;;;;;;;;5060797;28;20264;-51
2021/04/28 11:27:44;;;;;;;10.50;5.80;;;;;;;;;;5060194;28;20193;-54
2021/04/28 11:30:20;;;;;;;7.80;4.97;;;;;;;;;;5060915;28;20208;-53
2021/04/28 11:33:04;;;;;;;10.03;6.60;;;;;;;;;;5060552;28;20656;-53
2021/04/28 11:35:30;;;;;;;11.13;6.13;;;;;;;;;;5065550;28;20186;-53
2021/04/28 11:38:14;;;;;;;7.43;4.73;;;;;;;;;;5049153;28;20205;-53
2021/04/28 11:41:08;;;;;;;6.53;4.37;;;;;;;;;;5057936;28;20201;-52
2021/04/28 11:43:41;;;;;;;7.00;5.23;;;;;;;;;;5053784;28;20225;-52
2021/04/28 11:46:12;;;;;;;7.13;4.83;;;;;;;;;;5058503;28;20268;-54
2021/04/28 11:48:38;;;;;;;7.57;5.43;;;;;;;;;;5058473;28;20224;-52
2021/04/28 11:51:09;;;;;;;5.90;4.07;;;;;;;;;;5060425;28;20843;-53
2021/04/28 11:53:46;;;;;;;8.13;6.03;;;;;;;;;;5057200;28;20307;-53
2021/04/28 11:56:31;;;;;;;3.90;3.33;;;;;;;;;;5056722;28;20189;-53
2021/04/28 11:58:59;;;;;;;8.97;5.20;;;;;;;;;;5055554;28;20750;-54
2021/04/28 12:01:25;;;;;;;4.90;3.60;;;;;;;;;;5059109;28;20193;-53
2021/04/28 12:03:50;;;;;;;8.93;4.70;;;;;;;;;;5041496;28;20189;-51
2021/04/28 12:06:30;;;;;;;8.10;5.87;;;;;;;;;;5039512;28;20189;-53
2021/04/28 12:09:07;;;;;;;7.30;5.57;;;;;;;;;;5053195;28;20274;-52
2021/04/28 12:11:35;;;;;;;6.50;4.40;;;;;;;;;;5040284;28;20204;-51
2021/04/28 12:14:03;;;;;;;10.10;5.27;;;;;;;;;;5059334;28;20750;-52
2021/04/28 12:16:28;;;;;;;7.53;4.63;;;;;;;;;;5058796;28;20278;-53
2021/04/28 12:19:06;;;;;;;7.73;5.07;;;;;;;;;;5057109;28;20604;-52
2021/04/28 12:21:31;;;;;;;8.47;5.77;;;;;;;;;;5057277;28;20214;-51
2021/04/28 12:23:58;;;;;;;7.97;5.10;;;;;;;;;;5060263;28;20261;-48
2021/04/28 12:26:23;;;;;;;5.37;4.03;;;;;;;;;;5060020;28;20193;-50
2021/04/28 12:28:51;;;;;;;7.67;4.23;;;;;;;;;;5064931;28;20201;-51
2021/04/28 12:31:17;;;;;;;7.10;5.80;;;;;;;;;;5059051;28;20189;-49
2021/04/28 12:33:42;;;;;;;4.37;3.63;;;;;;;;;;5045373;28;20193;-50
2021/04/28 12:36:10;;;;;;;7.10;4.53;;;;;;;;;;5067084;28;20181;-50
2021/04/28 12:38:40;;;;;;;6.93;5.30;;;;;;;;;;5059445;28;20294;-51
2021/04/28 12:41:07;;;;;;;7.93;4.53;;;;;;;;;;5064168;28;20185;-49
2021/04/28 12:43:35;;;;;;;9.50;6.10;;;;;;;;;;5065343;28;20201;-52
2021/04/28 12:46:02;;;;;;;4.60;3.63;;;;;;;;;;5059977;28;20184;-51
2021/04/28 12:48:27;;;;;;;6.07;4.17;;;;;;;;;;5050322;28;20214;-50
2021/04/28 12:50:52;;;;;;;8.47;5.37;;;;;;;;;;5068126;28;20174;-52
2021/04/28 12:53:20;;;;;;;9.60;5.77;;;;;;;;;;5061221;28;20182;-52
2021/04/28 12:55:57;;;;;;;6.73;4.27;;;;;;;;;;5068174;28;20704;-53
2021/04/28 12:58:23;;;;;;;5.90;4.57;;;;;;;;;;5056135;28;20827;-52
2021/04/28 13:00:53;;;;;;;7.07;5.07;;;;;;;;;;5065071;28;20702;-52
2021/04/28 13:03:26;;;;;;;5.27;4.53;;;;;;;;;;5050925;28;20217;-50
2021/04/28 13:05:53;;;;;;;5.83;3.93;;;;;;;;;;5066771;28;20810;-52
2021/04/28 13:08:24;;;;;;;4.40;3.77;;;;;;;;;;5065211;28;20197;-51
2021/04/28 13:11:01;;;;;;;4.40;3.20;;;;;;;;;;5063801;28;20191;-52
2021/04/28 13:13:34;;;;;;;6.37;5.30;;;;;;;;;;5067872;28;20615;-53
2021/04/28 13:16:02;;;;;;;7.60;3.97;;;;;;;;;;5064666;28;20189;-52
2021/04/28 13:18:30;;;;;;;7.37;4.97;;;;;;;;;;5063866;28;20309;-52
2021/04/28 13:20:57;;;;;;;7.13;4.10;;;;;;;;;;5061302;28;20235;-52
2021/04/28 13:23:27;;;;;;;6.30;4.87;;;;;;;;;;5065816;28;20200;-51
2021/04/28 13:25:57;;;;;;;5.23;4.50;;;;;;;;;;5062613;28;20638;-51
2021/04/28 13:28:25;;;;;;;11.03;6.50;;;;;;;;;;5053254;28;20305;-53
2021/04/28 13:30:53;;;;;;;5.00;3.80;;;;;;;;;;5068824;28;20181;-53
2021/04/28 13:33:18;;;;;;;7.07;4.00;;;;;;;;;;5067440;28;20191;-52
2021/04/28 13:35:48;;;;;;;5.17;4.07;;;;;;;;;;5063667;28;20189;-52
2021/04/28 13:38:13;;;;;;;16.27;10.73;;;;;;;;;;5047685;28;20216;-52
2021/04/28 13:40:42;;;;;;;5.70;3.63;;;;;;;;;;5067204;28;20649;-51
2021/04/28 13:43:12;;;;;;;5.33;4.00;;;;;;;;;;5050807;28;20652;-50
2021/04/28 13:45:38;;;;;;;5.07;4.07;;;;;;;;;;5066476;28;20699;-51
2021/04/28 13:48:09;;;;;;;5.63;3.87;;;;;;;;;;5064435;28;20264;-53
2021/04/28 13:50:35;;;;;;;6.97;5.40;;;;;;;;;;5064564;28;20239;-52
2021/04/28 13:53:00;;;;;;;9.60;6.03;;;;;;;;;;5048436;28;20658;-51
2021/04/28 13:55:27;;;;;;;6.17;4.73;;;;;;;;;;5064263;28;20185;-54
2021/04/28 13:57:55;;;;;;;7.57;5.07;;;;;;;;;;5064530;28;20308;-53
2021/04/28 14:00:23;;;;;;;6.60;4.67;;;;;;;;;;5063807;28;20184;-53
2021/04/28 14:02:48;;;;;;;6.93;3.83;;;;;;;;;;5063909;28;20185;-52
2021/04/28 14:05:14;;;;;;;5.33;4.00;;;;;;;;;;5067505;28;20658;-51
2021/04/28 14:07:42;;;;;;;6.17;4.63;;;;;;;;;;5063446;28;20186;-53
2021/04/28 14:10:10;;;;;;;8.00;6.20;;;;;;;;;;5053284;28;20270;-52
2021/04/28 14:12:36;;;;;;;7.33;4.90;;;;;;;;;;5067929;28;20185;-53
2021/04/28 14:15:03;;;;;;;4.97;3.77;;;;;;;;;;5063031;28;20588;-54
2021/04/28 14:17:29;;;;;;;6.33;3.83;;;;;;;;;;5065036;28;20173;-53
2021/04/28 14:19:59;;;;;;;4.77;3.90;;;;;;;;;;5065015;28;20608;-51
2021/04/28 14:22:29;;;;;;;6.90;5.00;;;;;;;;;;5067490;28;20193;-52
2021/04/28 14:24:54;;;;;;;5.23;3.80;;;;;;;;;;5047314;28;20189;-52
2021/04/28 14:27:21;;;;;;;7.17;4.47;;;;;;;;;;5064098;28;20185;-51
2021/04/28 14:29:46;;;;;;;6.83;5.37;;;;;;;;;;5064503;28;20260;-50
2021/04/28 14:32:11;;;;;;;7.57;5.10;;;;;;;;;;5061771;28;20586;-52
2021/04/28 14:34:39;;;;;;;8.80;6.03;;;;;;;;;;5061196;28;20193;-53
2021/04/28 14:37:06;;;;;;;5.40;4.87;;;;;;;;;;5064467;28;20189;-53
2021/04/28 14:39:31;;;;;;;5.83;4.40;;;;;;;;;;5068240;28;20579;-53
2021/04/28 14:41:56;;;;;;;8.20;5.40;;;;;;;;;;5067649;28;20182;-52
2021/04/28 14:44:22;;;;;;;7.33;4.20;;;;;;;;;;5063786;28;20189;-51
2021/04/28 14:46:47;;;;;;;6.80;4.87;;;;;;;;;;5067089;28;20205;-53
2021/04/28 14:49:15;;;;;;;6.67;5.10;;;;;;;;;;5067400;28;20217;-51
2021/04/28 14:51:42;;;;;;;6.07;4.80;;;;;;;;;;5066411;28;20185;-51
2021/04/28 14:54:09;;;;;;;5.40;4.83;;;;;;;;;;5067257;28;20192;-52
2021/04/28 14:56:34;;;;;;;6.07;4.40;;;;;;;;;;5067623;28;20181;-52
2021/04/28 14:59:02;;;;;;;4.33;3.93;;;;;;;;;;5068105;28;20213;-52
2021/04/28 15:01:29;;;;;;;6.40;4.03;;;;;;;;;;5068043;28;20497;-52
2021/04/28 15:03:54;;;;;;;6.50;4.00;;;;;;;;;;5067145;28;20184;-53
2021/04/28 15:06:25;;;;;;;5.30;4.80;;;;;;;;;;5049417;28;20173;-53
2021/04/28 15:08:52;;;;;;;8.77;4.53;;;;;;;;;;5074092;28;20697;-50
2021/04/28 15:11:19;;;;;;;4.93;3.70;;;;;;;;;;5070362;28;20180;-52
2021/04/28 15:13:45;;;;;;;12.00;5.83;;;;;;;;;;5065629;28;20189;-52
2021/04/28 15:16:10;;;;;;;5.60;4.30;;;;;;;;;;5055539;28;20556;-51
2021/04/28 15:18:35;;;;;;;7.70;5.50;;;;;;;;;;5074907;28;20213;-53
2021/04/28 15:21:00;;;;;;;5.20;4.47;;;;;;;;;;5069400;28;20185;-57
2021/04/28 15:23:28;;;;;;;5.77;4.10;;;;;;;;;;5071715;28;20177;-52
2021/04/28 15:25:54;;;;;;;6.50;4.37;;;;;;;;;;5071270;28;20261;-52
2021/04/28 15:28:21;;;;;;;7.57;5.03;;;;;;;;;;5068814;28;20293;-51
2021/04/28 15:30:49;;;;;;;8.30;4.63;;;;;;;;;;5073101;28;20223;-51
2021/04/28 15:33:17;;;;;;;5.67;3.40;;;;;;;;;;5055153;28;20184;-51
2021/04/28 15:35:42;;;;;;;6.73;5.57;;;;;;;;;;5055345;28;20606;-51
2021/04/28 15:38:12;;;;;;;4.57;3.80;;;;;;;;;;5069406;28;20209;-51
2021/04/28 15:40:40;;;;;;;6.27;4.03;;;;;;;;;;5061022;28;20223;-51
2021/04/28 15:43:05;;;;;;;7.70;5.27;;;;;;;;;;5069237;28;20745;-51
2021/04/28 15:45:33;;;;;;;4.30;3.53;;;;;;;;;;5052052;28;20158;-52
2021/04/28 15:47:58;;;;;;;5.80;4.77;;;;;;;;;;5065171;28;20234;-50
2021/04/28 15:50:28;;;;;;;7.20;4.87;;;;;;;;;;5066272;28;20177;-51
2021/04/28 15:52:53;;;;;;;7.20;3.53;;;;;;;;;;5070009;28;20188;-51
2021/04/28 15:55:21;;;;;;;7.73;3.83;;;;;;;;;;5071929;28;20178;-51
2021/04/28 15:57:46;;;;;;;6.63;4.87;;;;;;;;;;5053980;28;20200;-51
2021/04/28 16:00:12;;;;;;;7.37;5.00;;;;;;;;;;5069178;28;20181;-51
2021/04/28 16:02:40;;;;;;;6.87;4.77;;;;;;;;;;5071627;28;20185;-51
2021/04/28 16:05:09;;;;;;;5.27;4.13;;;;;;;;;;5069225;28;21849;-52
2021/04/28 16:07:34;;;;;;;6.43;3.70;;;;;;;;;;5058460;28;20192;-52
2021/04/28 16:10:02;;;;;;;7.90;5.17;;;;;;;;;;5055807;28;20292;-50
2021/04/28 16:12:29;;;;;;;6.57;5.67;;;;;;;;;;5060653;28;20609;-52
2021/04/28 16:14:54;;;;;;;8.93;5.33;;;;;;;;;;5059598;28;20182;-51